CheckWX is a tool to help pilots better visualize weather data.  It is not intended as a substitute for an official pre-flight weather briefing.

23:17:07 UTC

KFTK METAR
Godman AAF Airport
Fort Knox, Kentucky, USA
Current

21 mins ago

KFTK 052256Z AUTO 35006KT 10SM BKN040 20/11 A3007 RMK AO2 SLP184 T01980110 $
Observed
Apr-5 @ 22:56 UTC
Wind
  • 350° at 6 KTS
Visibility
Flight Rules
VFR
Cloud Levels
  • Broken at 4,000' AGL
Temperature
20°C / 68°F
Dewpoint
11°C / 52°F
Humidity
56%
Altimeter
30.07" Hg
Pressure
1018.32 hPa
Previous

1 hour ago

KFTK 052156Z AUTO 29009KT 10SM SCT043 21/11 A3006 RMK AO2 SLP180 T02060110 $
Observed
Apr-5 @ 21:56 UTC
Wind
  • 290° at 9 KTS
Visibility
Flight Rules
VFR
Cloud Levels
  • Scattered at 4,300' AGL
Temperature
21°C / 70°F
Dewpoint
11°C / 52°F
Humidity
53%
Altimeter
30.06" Hg
Pressure
1017.92 hPa
Previous

2 hours ago

KFTK 052056Z AUTO 29005KT 10SM FEW040 21/11 A3005 RMK AO2 SLP177 T02080109 57009 $
Observed
Apr-5 @ 20:56 UTC
Wind
  • 290° at 5 KTS
Visibility
Flight Rules
VFR
Cloud Levels
  • Few at 4,000' AGL
Temperature
21°C / 70°F
Dewpoint
11°C / 52°F
Humidity
53%
Altimeter
30.05" Hg
Pressure
1017.62 hPa